createdAt,value
2017-07-26T00:01:27.256Z,12.77
2017-07-26T00:03:55.583Z,13.27
2017-07-26T00:06:23.895Z,11.13
2017-07-26T00:08:52.410Z,15.73
2017-07-26T00:11:21.486Z,13.33
2017-07-26T00:13:49.775Z,11.57
2017-07-26T00:16:18.875Z,11.90
2017-07-26T00:18:47.951Z,11.90
2017-07-26T00:21:16.287Z,11.30
2017-07-26T00:23:44.623Z,12.13
2017-07-26T00:26:12.972Z,13.60
2017-07-26T00:28:41.290Z,13.67
2017-07-26T00:31:10.386Z,12.77
2017-07-26T00:33:39.458Z,14.23
2017-07-26T00:36:07.879Z,12.30
2017-07-26T00:38:36.178Z,15.70
2017-07-26T00:41:04.487Z,14.77
2017-07-26T00:43:32.814Z,12.57
2017-07-26T00:46:01.134Z,14.73
2017-07-26T00:48:29.485Z,12.13
2017-07-26T00:50:57.801Z,11.53
2017-07-26T00:53:26.350Z,11.30
2017-07-26T00:55:55.471Z,12.33
2017-07-26T00:58:24.551Z,10.73
2017-07-26T01:00:52.867Z,14.50
2017-07-26T01:03:21.186Z,11.97
2017-07-26T01:05:49.504Z,13.10
2017-07-26T01:08:17.803Z,17.93
2017-07-26T01:10:46.139Z,11.17
2017-07-26T01:13:14.538Z,14.23
2017-07-26T01:15:43.023Z,13.40
2017-07-26T01:18:12.086Z,12.20
2017-07-26T01:20:40.391Z,12.13
2017-07-26T01:23:08.707Z,16.97
2017-07-26T01:25:37.278Z,18.37
2017-07-26T01:28:05.618Z,17.47
2017-07-26T01:30:33.918Z,15.93
2017-07-26T01:33:02.263Z,13.57
2017-07-26T01:35:30.559Z,13.13
2017-07-26T01:37:58.854Z,13.70
2017-07-26T01:40:27.914Z,11.40
2017-07-26T01:42:57.114Z,16.27
2017-07-26T01:45:26.189Z,12.20
2017-07-26T01:47:54.495Z,13.40
2017-07-26T01:50:22.819Z,15.23
2017-07-26T01:52:51.118Z,14.10
2017-07-26T01:55:19.440Z,10.87
2017-07-26T01:57:48.488Z,12.67
2017-07-26T02:00:16.866Z,12.33
2017-07-26T02:02:45.173Z,16.77
2017-07-26T02:05:14.270Z,20.17
2017-07-26T02:07:43.343Z,13.97
2017-07-26T02:10:11.683Z,12.37
2017-07-26T02:12:39.980Z,9.87
2017-07-26T02:15:08.288Z,9.07
2017-07-26T02:17:36.585Z,12.07
2017-07-26T02:20:05.362Z,11.90
2017-07-26T02:22:33.678Z,13.37
2017-07-26T02:25:01.980Z,13.13
2017-07-26T02:27:30.305Z,13.93
2017-07-26T02:29:58.600Z,13.40
2017-07-26T02:32:26.946Z,13.80
2017-07-26T02:34:55.258Z,12.07
2017-07-26T02:37:23.761Z,12.60
2017-07-26T02:39:52.070Z,13.77
2017-07-26T02:42:21.483Z,15.17
2017-07-26T02:44:50.542Z,14.03
2017-07-26T02:47:18.830Z,10.60
2017-07-26T02:49:47.189Z,14.90
2017-07-26T02:52:15.484Z,15.27
2017-07-26T02:54:43.810Z,13.20
2017-07-26T02:57:12.114Z,10.33
2017-07-26T02:59:40.440Z,10.37
2017-07-26T03:02:08.763Z,10.60
2017-07-26T03:04:37.086Z,11.93
2017-07-26T03:07:06.159Z,12.00
2017-07-26T03:09:34.660Z,12.77
2017-07-26T03:12:03.726Z,11.20
2017-07-26T03:14:32.030Z,13.07
2017-07-26T03:17:00.387Z,12.67
2017-07-26T03:19:28.694Z,12.83
2017-07-26T03:21:57.021Z,13.90
2017-07-26T03:24:25.318Z,13.87
2017-07-26T03:26:54.421Z,11.03
2017-07-26T03:29:23.489Z,12.37
2017-07-26T03:31:51.839Z,11.13
2017-07-26T03:34:20.166Z,12.87
2017-07-26T03:36:48.485Z,45.47
2017-07-26T03:39:16.798Z,11.50
2017-07-26T03:41:45.124Z,11.57
2017-07-26T03:44:13.446Z,10.90
2017-07-26T03:46:41.753Z,13.03
2017-07-26T03:49:10.073Z,13.27
2017-07-26T03:51:38.366Z,16.23
2017-07-26T03:54:06.690Z,17.87
2017-07-26T03:56:35.768Z,14.80
2017-07-26T03:59:04.108Z,18.00
2017-07-26T04:01:32.407Z,16.90
2017-07-26T04:04:00.750Z,14.57
2017-07-26T04:06:29.096Z,14.50
2017-07-26T04:08:58.516Z,16.77
2017-07-26T04:11:26.826Z,15.40
2017-07-26T04:13:55.166Z,14.70
2017-07-26T04:16:23.504Z,15.87
2017-07-26T04:18:51.809Z,17.67
2017-07-26T04:21:20.882Z,15.00
2017-07-26T04:23:49.174Z,14.43
2017-07-26T04:26:17.474Z,15.13
2017-07-26T04:28:45.791Z,15.67
2017-07-26T04:31:14.921Z,16.67
2017-07-26T04:33:43.986Z,17.73
2017-07-26T04:36:12.686Z,15.93
2017-07-26T04:38:40.995Z,16.10
2017-07-26T04:41:09.303Z,14.67
2017-07-26T04:43:37.650Z,15.37
2017-07-26T04:46:05.983Z,16.23
2017-07-26T04:48:34.348Z,15.50
2017-07-26T04:51:02.664Z,17.80
2017-07-26T04:53:31.067Z,14.80
2017-07-26T04:55:59.398Z,15.83
2017-07-26T04:58:27.742Z,18.70
2017-07-26T05:00:56.050Z,16.80
2017-07-26T05:03:24.374Z,18.20
2017-07-26T05:05:52.708Z,17.23
2017-07-26T05:08:21.922Z,17.23
2017-07-26T05:10:51.014Z,20.70
2017-07-26T05:13:19.352Z,18.30
2017-07-26T05:15:47.715Z,18.73
2017-07-26T05:18:16.047Z,15.53
2017-07-26T05:20:45.155Z,14.33
2017-07-26T05:23:13.528Z,14.47
2017-07-26T05:25:41.884Z,15.10
2017-07-26T05:28:10.996Z,18.50
2017-07-26T05:30:39.357Z,15.87
2017-07-26T05:33:07.639Z,15.40
2017-07-26T05:35:36.743Z,17.33
2017-07-26T05:38:05.059Z,16.17
2017-07-26T05:40:33.497Z,15.80
2017-07-26T05:43:02.589Z,16.17
2017-07-26T05:45:31.663Z,14.97
2017-07-26T05:48:00.902Z,14.70
2017-07-26T05:50:29.179Z,14.60
2017-07-26T05:52:57.727Z,13.73
2017-07-26T05:55:26.023Z,14.63
2017-07-26T05:57:54.366Z,15.10
2017-07-26T06:00:22.676Z,16.03
2017-07-26T06:02:51.792Z,16.20
2017-07-26T06:05:20.090Z,14.77
2017-07-26T06:07:48.516Z,14.47
2017-07-26T06:10:17.603Z,17.50
2017-07-26T06:12:45.906Z,16.50
2017-07-26T06:15:14.243Z,16.67
2017-07-26T06:17:42.542Z,13.90
2017-07-26T06:20:10.867Z,14.00
2017-07-26T06:22:39.168Z,15.03
2017-07-26T06:25:07.496Z,14.87
2017-07-26T06:27:35.827Z,15.63
2017-07-26T06:30:04.947Z,18.30
2017-07-26T06:32:34.085Z,17.70
2017-07-26T06:35:02.403Z,15.43
2017-07-26T06:37:30.711Z,18.40
2017-07-26T06:39:59.911Z,22.00
2017-07-26T06:42:28.977Z,18.90
2017-07-26T06:44:57.281Z,22.17
2017-07-26T06:47:25.623Z,19.83
2017-07-26T06:49:53.939Z,20.03
2017-07-26T06:52:22.628Z,19.77
2017-07-26T06:54:51.523Z,18.10
2017-07-26T06:57:19.842Z,19.13
2017-07-26T06:59:48.164Z,21.50
2017-07-26T07:02:16.487Z,21.40
2017-07-26T07:04:44.824Z,20.67
2017-07-26T07:07:13.288Z,19.47
2017-07-26T07:09:42.393Z,24.73
2017-07-26T07:12:10.709Z,25.27
2017-07-26T07:14:39.067Z,21.40
2017-07-26T07:17:08.189Z,21.10
2017-07-26T07:19:37.337Z,22.63
2017-07-26T07:22:05.674Z,22.00
2017-07-26T07:24:34.118Z,22.67
2017-07-26T07:27:02.443Z,25.00
2017-07-26T07:29:30.775Z,26.90
2017-07-26T07:31:59.123Z,24.33
2017-07-26T07:34:27.402Z,24.93
2017-07-26T07:36:55.740Z,24.80
2017-07-26T07:39:24.058Z,27.97
2017-07-26T07:41:53.131Z,21.43
2017-07-26T07:44:22.207Z,26.17
2017-07-26T07:46:50.530Z,26.63
2017-07-26T07:49:18.871Z,26.03
2017-07-26T07:51:47.302Z,26.50
2017-07-26T07:54:15.624Z,25.43
2017-07-26T07:56:44.716Z,26.83
2017-07-26T07:59:13.070Z,25.43
2017-07-26T08:01:41.395Z,23.77
2017-07-26T08:04:10.493Z,27.90
2017-07-26T08:06:39.570Z,28.50
2017-07-26T08:09:08.692Z,26.33
2017-07-26T08:11:37.794Z,28.17
2017-07-26T08:14:06.243Z,29.33
2017-07-26T08:16:35.323Z,31.40
2017-07-26T08:19:03.630Z,29.23
2017-07-26T08:21:32.719Z,30.27
2017-07-26T08:24:01.802Z,31.80
2017-07-26T08:26:30.126Z,28.90
2017-07-26T08:28:58.416Z,31.57
2017-07-26T08:31:26.757Z,30.30
2017-07-26T08:33:55.823Z,32.33
2017-07-26T08:36:24.269Z,33.60
2017-07-26T08:38:52.574Z,36.43
2017-07-26T08:41:20.882Z,34.63
2017-07-26T08:43:49.967Z,35.47
2017-07-26T08:46:18.299Z,32.60
2017-07-26T08:48:46.630Z,33.93
2017-07-26T08:51:14.957Z,34.50
2017-07-26T08:53:43.294Z,34.90
2017-07-26T08:56:11.601Z,30.60
2017-07-26T08:58:39.934Z,35.43
2017-07-26T09:01:08.224Z,32.67
2017-07-26T09:03:37.001Z,30.27
2017-07-26T09:06:05.315Z,28.67
2017-07-26T09:08:33.634Z,32.73
2017-07-26T09:11:02.737Z,39.77
2017-07-26T09:13:31.079Z,37.07
2017-07-26T09:15:59.418Z,33.40
2017-07-26T09:18:27.722Z,40.20
2017-07-26T09:20:56.267Z,35.97
2017-07-26T09:23:24.570Z,34.30
2017-07-26T09:25:53.013Z,33.00
2017-07-26T09:28:21.327Z,34.87
2017-07-26T09:30:49.866Z,34.47
2017-07-26T09:33:18.191Z,32.17
2017-07-26T09:35:46.515Z,31.17
2017-07-26T09:38:15.627Z,37.13
2017-07-26T09:40:43.995Z,39.40
2017-07-26T09:43:12.334Z,37.93
2017-07-26T09:45:40.738Z,39.00
2017-07-26T09:48:09.898Z,33.17
2017-07-26T09:50:38.288Z,36.63
2017-07-26T09:53:06.656Z,34.37
2017-07-26T09:55:34.970Z,35.17
2017-07-26T09:58:04.379Z,38.27
2017-07-26T10:00:33.598Z,40.77
2017-07-26T10:03:01.962Z,37.03
2017-07-26T10:05:30.294Z,42.47
2017-07-26T10:07:58.649Z,38.97
2017-07-26T10:10:27.011Z,42.83
2017-07-26T10:12:55.364Z,38.50
2017-07-26T10:15:23.856Z,30.73
2017-07-26T10:17:52.166Z,31.43
2017-07-26T10:20:20.604Z,34.80
2017-07-26T10:22:48.979Z,28.60
2017-07-26T10:25:17.459Z,28.27
2017-07-26T10:27:46.526Z,31.43
2017-07-26T10:30:15.652Z,26.70
2017-07-26T10:32:44.964Z,37.77
2017-07-26T10:35:13.279Z,26.57
2017-07-26T10:37:41.607Z,25.57
2017-07-26T10:40:09.983Z,24.67
2017-07-26T10:42:38.366Z,26.50
2017-07-26T10:45:06.739Z,28.60
2017-07-26T10:47:35.072Z,24.00
2017-07-26T10:50:03.399Z,27.13
2017-07-26T10:52:31.979Z,32.10
2017-07-26T10:55:00.364Z,19.73
2017-07-26T10:57:28.689Z,18.90
2017-07-26T10:59:57.838Z,19.97
2017-07-26T11:02:26.143Z,19.27
2017-07-26T11:04:54.570Z,17.47
2017-07-26T11:07:23.641Z,15.83
2017-07-26T11:09:52.176Z,15.17
2017-07-26T11:12:20.484Z,16.53
2017-07-26T11:14:48.801Z,17.33
2017-07-26T11:17:17.995Z,15.70
2017-07-26T11:19:46.451Z,17.93
2017-07-26T11:22:15.582Z,17.70
2017-07-26T11:24:43.894Z,19.43
2017-07-26T11:27:12.326Z,17.43
2017-07-26T11:29:41.407Z,17.30
2017-07-26T11:32:10.540Z,21.97
2017-07-26T11:34:38.903Z,21.63
2017-07-26T11:37:08.008Z,19.43
2017-07-26T11:39:36.379Z,15.20
2017-07-26T11:42:04.702Z,14.40
2017-07-26T11:44:33.007Z,13.73
2017-07-26T11:47:01.615Z,14.00
2017-07-26T11:49:30.666Z,15.50
2017-07-26T11:51:58.977Z,13.87
2017-07-26T11:54:27.346Z,15.33
2017-07-26T11:56:56.418Z,13.47
2017-07-26T11:59:24.757Z,14.37
2017-07-26T12:01:53.107Z,16.27
2017-07-26T12:04:22.310Z,16.57
2017-07-26T12:06:50.682Z,16.57
2017-07-26T12:09:19.033Z,14.23
2017-07-26T12:11:48.137Z,15.13
2017-07-26T12:14:16.455Z,16.07
2017-07-26T12:16:44.753Z,14.80
2017-07-26T12:19:13.111Z,16.13
2017-07-26T12:21:41.574Z,13.90
2017-07-26T12:24:09.947Z,14.07
2017-07-26T12:26:38.321Z,15.30
2017-07-26T12:29:06.634Z,12.00
2017-07-26T12:31:35.083Z,12.80
2017-07-26T12:34:03.530Z,21.30
2017-07-26T12:36:31.860Z,15.07
2017-07-26T12:39:01.978Z,13.47
2017-07-26T12:41:30.278Z,10.83
2017-07-26T12:43:58.903Z,13.33
2017-07-26T12:46:27.549Z,13.30
2017-07-26T12:48:56.070Z,13.53
2017-07-26T12:51:24.397Z,11.57
2017-07-26T12:53:52.716Z,13.87
2017-07-26T12:56:21.864Z,12.50
2017-07-26T12:58:50.176Z,14.70
2017-07-26T13:01:18.495Z,13.70
2017-07-26T13:03:46.797Z,15.20
2017-07-26T13:06:15.140Z,12.50
2017-07-26T13:08:43.524Z,12.07
2017-07-26T13:11:11.866Z,14.37
2017-07-26T13:13:40.929Z,13.70
2017-07-26T13:16:09.554Z,11.40
2017-07-26T13:18:37.939Z,11.87
2017-07-26T13:21:07.010Z,11.40
2017-07-26T13:23:35.409Z,14.57
2017-07-26T13:26:04.602Z,11.27
2017-07-26T13:28:32.983Z,11.83
2017-07-26T13:31:01.306Z,11.87
2017-07-26T13:33:29.634Z,11.33
2017-07-26T13:35:58.719Z,12.10
2017-07-26T13:38:27.315Z,13.40
2017-07-26T13:40:55.919Z,12.40
2017-07-26T13:43:24.280Z,15.10
2017-07-26T13:45:52.615Z,15.90
2017-07-26T13:48:21.032Z,15.83
2017-07-26T13:50:50.232Z,14.37
2017-07-26T13:53:18.515Z,16.13
2017-07-26T13:55:46.854Z,15.07
2017-07-26T13:58:15.170Z,15.00
2017-07-26T14:00:43.545Z,16.43
2017-07-26T14:03:12.020Z,17.00
2017-07-26T14:05:40.447Z,17.77
2017-07-26T14:08:08.772Z,13.30
2017-07-26T14:10:37.082Z,18.37
2017-07-26T14:13:05.640Z,12.80
2017-07-26T14:15:34.940Z,11.20
2017-07-26T14:18:03.251Z,12.03
2017-07-26T14:20:31.582Z,11.13
2017-07-26T14:23:00.787Z,12.07
2017-07-26T14:25:29.098Z,13.57
2017-07-26T14:27:57.438Z,10.77
2017-07-26T14:30:25.756Z,13.70
2017-07-26T14:32:54.202Z,18.00
2017-07-26T14:35:23.292Z,14.83
2017-07-26T14:37:52.483Z,14.90
2017-07-26T14:40:21.578Z,14.67
2017-07-26T14:42:50.890Z,13.80
2017-07-26T14:45:19.232Z,13.63
2017-07-26T14:47:47.522Z,13.27
2017-07-26T14:50:16.739Z,13.37
2017-07-26T14:52:45.819Z,15.20
2017-07-26T14:55:14.914Z,18.10
2017-07-26T14:57:43.399Z,16.37
2017-07-26T15:00:12.491Z,17.27
2017-07-26T15:02:41.553Z,15.97
2017-07-26T15:05:09.970Z,17.30
2017-07-26T15:07:38.261Z,18.90
2017-07-26T15:10:06.948Z,14.10
2017-07-26T15:12:35.257Z,15.10
2017-07-26T15:15:03.555Z,13.43
2017-07-26T15:17:31.901Z,14.97
2017-07-26T15:20:00.212Z,16.20
2017-07-26T15:22:28.528Z,16.00
2017-07-26T15:24:56.861Z,16.07
2017-07-26T15:27:25.970Z,14.73
2017-07-26T15:29:55.051Z,17.53
2017-07-26T15:32:23.681Z,19.07
2017-07-26T15:34:51.974Z,21.00
2017-07-26T15:37:20.315Z,25.77
2017-07-26T15:39:49.393Z,22.83
2017-07-26T15:42:17.673Z,22.57
2017-07-26T15:44:46.859Z,27.70
2017-07-26T15:47:15.259Z,24.37
2017-07-26T15:49:43.631Z,26.17
2017-07-26T15:52:12.723Z,18.30
2017-07-26T15:54:41.103Z,33.47
2017-07-26T15:57:09.508Z,17.50
2017-07-26T15:59:38.062Z,15.37
2017-07-26T16:02:06.386Z,17.70
2017-07-26T16:04:34.744Z,15.93
2017-07-26T16:07:03.943Z,13.53
2017-07-26T16:09:36.869Z,13.73
2017-07-26T16:12:06.128Z,19.50
2017-07-26T16:14:34.480Z,22.00
2017-07-26T16:17:02.823Z,22.77
2017-07-26T16:19:31.142Z,17.83
2017-07-26T16:21:59.529Z,12.20
2017-07-26T16:24:27.843Z,12.37
2017-07-26T16:26:56.472Z,12.83
2017-07-26T16:29:24.788Z,13.77
2017-07-26T16:31:53.122Z,13.57
2017-07-26T16:34:21.502Z,14.30
2017-07-26T16:36:49.892Z,13.83
2017-07-26T16:39:19.068Z,12.33
2017-07-26T16:41:48.162Z,14.90
2017-07-26T16:44:17.274Z,13.73
2017-07-26T16:46:46.384Z,20.83
2017-07-26T16:49:14.944Z,22.47
2017-07-26T16:51:44.235Z,19.73
2017-07-26T16:54:12.618Z,15.73
2017-07-26T16:56:40.971Z,17.80
2017-07-26T16:59:09.282Z,15.27
2017-07-26T17:01:37.654Z,13.37
2017-07-26T17:04:06.759Z,11.70
2017-07-26T17:06:35.961Z,14.17
2017-07-26T17:09:04.274Z,16.13
2017-07-26T17:11:32.570Z,12.73
2017-07-26T17:14:00.903Z,15.30
2017-07-26T17:16:29.369Z,18.07
2017-07-26T17:18:57.707Z,15.37
2017-07-26T17:21:26.024Z,18.20
2017-07-26T17:23:54.378Z,16.13
2017-07-26T17:26:22.761Z,14.50
2017-07-26T17:28:51.147Z,13.17
2017-07-26T17:31:19.483Z,16.67
2017-07-26T17:33:47.999Z,16.33
2017-07-26T17:36:16.387Z,14.63
2017-07-26T17:38:44.764Z,10.40
2017-07-26T17:41:13.219Z,10.20
2017-07-26T17:43:42.310Z,10.07
2017-07-26T17:46:10.625Z,11.13
2017-07-26T17:48:38.947Z,10.90
2017-07-26T17:51:07.569Z,9.97
2017-07-26T17:53:35.958Z,11.07
2017-07-26T17:56:05.424Z,9.20
2017-07-26T17:58:33.728Z,9.93
2017-07-26T18:01:02.099Z,9.43
2017-07-26T18:03:31.913Z,10.20
2017-07-26T18:06:00.291Z,11.00
2017-07-26T18:08:29.496Z,12.50
2017-07-26T18:10:58.585Z,12.00
2017-07-26T18:13:27.668Z,13.37
2017-07-26T18:15:56.046Z,10.23
2017-07-26T18:18:24.355Z,10.93
2017-07-26T18:20:52.690Z,12.57
2017-07-26T18:23:21.015Z,14.33
2017-07-26T18:25:49.346Z,12.90
2017-07-26T18:28:18.464Z,12.70
2017-07-26T18:30:46.795Z,11.80
2017-07-26T18:33:15.103Z,10.87
2017-07-26T18:35:44.195Z,12.60
2017-07-26T18:38:12.482Z,13.60
2017-07-26T18:40:42.412Z,13.77
2017-07-26T18:43:10.750Z,13.27
2017-07-26T18:45:39.055Z,13.80
2017-07-26T18:48:08.142Z,12.07
2017-07-26T18:50:37.206Z,12.40
2017-07-26T18:53:06.334Z,13.47
2017-07-26T18:55:34.632Z,13.13
2017-07-26T18:58:03.075Z,13.63
2017-07-26T19:00:31.354Z,15.30
2017-07-26T19:02:59.703Z,14.37
2017-07-26T19:05:28.822Z,15.23
2017-07-26T19:07:57.127Z,11.90
2017-07-26T19:10:25.455Z,14.00
2017-07-26T19:12:53.741Z,12.80
2017-07-26T19:15:22.076Z,12.20
2017-07-26T19:17:50.385Z,13.53
2017-07-26T19:20:19.525Z,12.60
2017-07-26T19:22:48.586Z,12.93
2017-07-26T19:25:16.898Z,11.00
2017-07-26T19:27:45.683Z,12.67
2017-07-26T19:30:14.168Z,13.30
2017-07-26T19:32:42.542Z,14.90
2017-07-26T19:35:11.711Z,11.10
2017-07-26T19:37:40.167Z,13.60
2017-07-26T19:40:08.600Z,11.47
2017-07-26T19:42:37.703Z,13.60
2017-07-26T19:45:06.775Z,14.17
2017-07-26T19:47:35.149Z,11.33
2017-07-26T19:50:04.228Z,13.23
2017-07-26T19:52:32.532Z,13.47
2017-07-26T19:55:00.835Z,14.37
2017-07-26T19:57:29.186Z,12.37
2017-07-26T19:59:58.250Z,12.47
2017-07-26T20:02:26.578Z,13.27
2017-07-26T20:04:54.902Z,14.33
2017-07-26T20:07:23.312Z,13.43
2017-07-26T20:09:51.658Z,12.00
2017-07-26T20:12:19.971Z,14.00
2017-07-26T20:14:48.326Z,13.80
2017-07-26T20:17:16.612Z,13.57
2017-07-26T20:19:44.939Z,13.50
2017-07-26T20:22:13.242Z,12.43
2017-07-26T20:24:41.586Z,11.50
2017-07-26T20:27:09.918Z,12.53
2017-07-26T20:29:39.047Z,11.90
2017-07-26T20:32:07.342Z,13.80
2017-07-26T20:34:35.657Z,13.73
2017-07-26T20:37:04.858Z,11.43
2017-07-26T20:39:33.255Z,13.47
2017-07-26T20:42:01.679Z,14.73
2017-07-26T20:44:30.759Z,14.47
2017-07-26T20:46:59.206Z,13.77
2017-07-26T20:49:27.481Z,15.23
2017-07-26T20:51:55.859Z,15.53
2017-07-26T20:54:24.991Z,15.07
2017-07-26T20:56:53.267Z,15.00
2017-07-26T20:59:21.698Z,13.17
2017-07-26T21:01:51.726Z,12.67
2017-07-26T21:04:20.246Z,13.77
2017-07-26T21:06:48.559Z,20.27
2017-07-26T21:09:16.846Z,15.67
2017-07-26T21:11:45.935Z,15.20
2017-07-26T21:14:15.012Z,16.10
2017-07-26T21:16:43.326Z,14.50
2017-07-26T21:19:11.627Z,14.47
2017-07-26T21:21:40.072Z,15.17
2017-07-26T21:24:09.168Z,13.20
2017-07-26T21:26:37.482Z,11.93
2017-07-26T21:29:05.794Z,16.07
2017-07-26T21:31:34.304Z,14.13
2017-07-26T21:34:03.379Z,12.67
2017-07-26T21:36:31.676Z,13.70
2017-07-26T21:39:00.765Z,13.60
2017-07-26T21:41:29.091Z,14.77
2017-07-26T21:43:57.419Z,11.10
2017-07-26T21:46:25.748Z,11.70
2017-07-26T21:48:54.101Z,13.47
2017-07-26T21:51:23.288Z,14.27
2017-07-26T21:53:51.718Z,10.13
2017-07-26T21:56:20.958Z,11.60
2017-07-26T21:58:50.041Z,14.53
2017-07-26T22:01:18.389Z,11.90
2017-07-26T22:03:46.704Z,12.40
2017-07-26T22:06:15.791Z,12.67
2017-07-26T22:08:44.116Z,12.90
2017-07-26T22:11:12.452Z,11.30
2017-07-26T22:13:41.501Z,13.90
2017-07-26T22:16:09.819Z,14.07
2017-07-26T22:18:38.886Z,12.83
2017-07-26T22:21:07.547Z,14.57
2017-07-26T22:23:35.838Z,13.80
2017-07-26T22:26:04.144Z,14.60
2017-07-26T22:28:33.241Z,15.13
2017-07-26T22:31:02.325Z,12.40
2017-07-26T22:33:30.655Z,14.10
2017-07-26T22:35:59.057Z,14.70
2017-07-26T22:38:27.431Z,12.37
2017-07-26T22:40:55.752Z,14.40
2017-07-26T22:43:24.097Z,13.70
2017-07-26T22:45:53.184Z,14.47
2017-07-26T22:48:21.654Z,13.67
2017-07-26T22:50:49.946Z,12.93
2017-07-26T22:53:18.279Z,13.13
2017-07-26T22:55:46.599Z,14.57
2017-07-26T22:58:15.036Z,15.20
2017-07-26T23:00:43.322Z,13.47
2017-07-26T23:03:11.626Z,14.03
2017-07-26T23:05:39.950Z,11.37
2017-07-26T23:08:09.003Z,12.33
2017-07-26T23:10:38.150Z,15.00
2017-07-26T23:13:06.469Z,14.37
2017-07-26T23:15:34.878Z,13.77
2017-07-26T23:18:03.178Z,13.33
2017-07-26T23:20:31.539Z,13.60
2017-07-26T23:22:59.910Z,14.53
2017-07-26T23:25:28.268Z,14.73
2017-07-26T23:27:56.662Z,12.50
2017-07-26T23:30:25.036Z,13.80
2017-07-26T23:32:54.059Z,13.67
2017-07-26T23:35:22.378Z,13.60
2017-07-26T23:37:52.255Z,13.57
2017-07-26T23:40:20.601Z,14.47
2017-07-26T23:42:48.982Z,14.40
2017-07-26T23:45:18.078Z,16.53
2017-07-26T23:47:47.172Z,14.70
2017-07-26T23:50:16.233Z,15.30
2017-07-26T23:52:44.651Z,15.67
2017-07-26T23:55:13.119Z,14.73
2017-07-26T23:57:41.507Z,12.47
